If you wish to contribute or participate in the discussions about articles you are invited to join SKYbrary as a registered user

 Actions

Quimper-Cornouaille Airport

From SKYbrary Wiki

LFRQ
Airport
ICAO: LFRQ – IATA: UIP
Summary
Name Quimper-Cornouaille Airport
Region Europe
Territory France FR.gif
Location , Bretagne
Serving Quimper
Elevation 90.526 m
297 ft
297 ft90.526 m
Type medium airport
Coordinates 47° 58' 29.93" N, 4° 10' 4.03" W
Runways
Designator Length Width Surface ROPS
4/22 810 m2,657.48 ft
45 m147.638 ft
ASP /
10/28 2150 m7,053.806 ft
45 m147.638 ft
ASP yes/yes


METAR
Observation LFRQ 190530Z AUTO 26003KT CAVOK 12/12 Q1018 TEMPO SHRA SCT018TCU
Station Quimper
Date/Time 19 August 2019 05:30:00
Wind direction 260°
Wind speed 03 kts
Lowest cloud amount scattered clouds
Temperature 12°C
Dew point 12°C
Humidity 100%
QNH 1018 hPa
Weather condition n/a